sensor_id;sensor_type;location;lat;lon;timestamp;temperature;humidity
5196;DHT22;2617;51.006;12.436;2023-04-24T00:02:32;11.60;99.90
5196;DHT22;2617;51.006;12.436;2023-04-24T00:07:35;11.60;99.90
5196;DHT22;2617;51.006;12.436;2023-04-24T00:12:38;11.50;99.90
5196;DHT22;2617;51.006;12.436;2023-04-24T00:17:40;11.50;99.90
5196;DHT22;2617;51.006;12.436;2023-04-24T00:22:43;11.30;99.90
5196;DHT22;2617;51.006;12.436;2023-04-24T00:27:45;11.30;99.90
5196;DHT22;2617;51.006;12.436;2023-04-24T00:32:48;11.20;99.90
5196;DHT22;2617;51.006;12.436;2023-04-24T00:37:51;11.10;99.90
5196;DHT22;2617;51.006;12.436;2023-04-24T00:42:53;11.10;99.90
5196;DHT22;2617;51.006;12.436;2023-04-24T00:47:56;11.10;99.90
5196;DHT22;2617;51.006;12.436;2023-04-24T00:52:59;11.00;99.90
5196;DHT22;2617;51.006;12.436;2023-04-24T00:58:01;11.00;99.90
5196;DHT22;2617;51.006;12.436;2023-04-24T01:03:04;11.00;99.90
5196;DHT22;2617;51.006;12.436;2023-04-24T01:08:06;11.00;99.90
5196;DHT22;2617;51.006;12.436;2023-04-24T01:13:09;10.90;99.90
5196;DHT22;2617;51.006;12.436;2023-04-24T01:18:12;10.90;99.90
5196;DHT22;2617;51.006;12.436;2023-04-24T01:23:14;10.90;99.90
5196;DHT22;2617;51.006;12.436;2023-04-24T01:28:18;10.70;99.90
5196;DHT22;2617;51.006;12.436;2023-04-24T01:33:20;10.70;99.90
5196;DHT22;2617;51.006;12.436;2023-04-24T01:38:22;10.70;99.90
5196;DHT22;2617;51.006;12.436;2023-04-24T01:43:25;10.60;99.90
5196;DHT22;2617;51.006;12.436;2023-04-24T01:48:27;10.50;99.90
5196;DHT22;2617;51.006;12.436;2023-04-24T01:53:30;10.50;99.90
5196;DHT22;2617;51.006;12.436;2023-04-24T01:58:32;10.40;99.90
5196;DHT22;2617;51.006;12.436;2023-04-24T02:03:34;10.40;99.90
5196;DHT22;2617;51.006;12.436;2023-04-24T02:08:38;10.30;99.90
5196;DHT22;2617;51.006;12.436;2023-04-24T02:13:40;10.30;99.90
5196;DHT22;2617;51.006;12.436;2023-04-24T02:18:43;10.30;99.90
5196;DHT22;2617;51.006;12.436;2023-04-24T02:23:45;10.20;99.90
5196;DHT22;2617;51.006;12.436;2023-04-24T02:28:48;10.10;99.90
5196;DHT22;2617;51.006;12.436;2023-04-24T02:33:51;10.10;99.90
5196;DHT22;2617;51.006;12.436;2023-04-24T02:38:53;10.10;99.90
5196;DHT22;2617;51.006;12.436;2023-04-24T02:43:55;10.10;99.90
5196;DHT22;2617;51.006;12.436;2023-04-24T02:48:58;10.00;99.90
5196;DHT22;2617;51.006;12.436;2023-04-24T02:54:00;10.00;99.90
5196;DHT22;2617;51.006;12.436;2023-04-24T02:59:03;10.00;99.90
5196;DHT22;2617;51.006;12.436;2023-04-24T03:04:05;10.00;99.90
5196;DHT22;2617;51.006;12.436;2023-04-24T03:09:08;10.00;99.90
5196;DHT22;2617;51.006;12.436;2023-04-24T03:14:11;10.00;99.90
5196;DHT22;2617;51.006;12.436;2023-04-24T03:19:13;10.00;99.90
5196;DHT22;2617;51.006;12.436;2023-04-24T03:24:15;10.00;99.90
5196;DHT22;2617;51.006;12.436;2023-04-24T03:29:18;10.00;99.90
5196;DHT22;2617;51.006;12.436;2023-04-24T03:34:21;10.00;99.90
5196;DHT22;2617;51.006;12.436;2023-04-24T03:39:23;10.00;99.90
5196;DHT22;2617;51.006;12.436;2023-04-24T03:44:26;10.00;99.90
5196;DHT22;2617;51.006;12.436;2023-04-24T03:49:28;9.90;99.90
5196;DHT22;2617;51.006;12.436;2023-04-24T03:54:30;9.90;99.90
5196;DHT22;2617;51.006;12.436;2023-04-24T03:59:33;9.80;99.90
5196;DHT22;2617;51.006;12.436;2023-04-24T04:04:36;9.90;99.90
5196;DHT22;2617;51.006;12.436;2023-04-24T04:09:38;9.90;99.90
5196;DHT22;2617;51.006;12.436;2023-04-24T04:14:41;9.90;99.90
5196;DHT22;2617;51.006;12.436;2023-04-24T04:19:44;9.90;99.90
5196;DHT22;2617;51.006;12.436;2023-04-24T04:24:46;9.90;99.90
5196;DHT22;2617;51.006;12.436;2023-04-24T04:29:49;10.00;99.90
5196;DHT22;2617;51.006;12.436;2023-04-24T04:34:52;9.90;99.90
5196;DHT22;2617;51.006;12.436;2023-04-24T04:39:54;10.10;99.90
5196;DHT22;2617;51.006;12.436;2023-04-24T04:44:56;10.20;99.90
5196;DHT22;2617;51.006;12.436;2023-04-24T04:49:59;10.30;99.90
5196;DHT22;2617;51.006;12.436;2023-04-24T04:55:01;10.40;99.90
5196;DHT22;2617;51.006;12.436;2023-04-24T05:00:05;10.50;99.90
5196;DHT22;2617;51.006;12.436;2023-04-24T05:05:08;10.60;99.90
5196;DHT22;2617;51.006;12.436;2023-04-24T05:10:11;10.80;99.90
5196;DHT22;2617;51.006;12.436;2023-04-24T05:15:14;10.80;99.90
5196;DHT22;2617;51.006;12.436;2023-04-24T05:20:17;10.90;99.90
5196;DHT22;2617;51.006;12.436;2023-04-24T05:25:20;10.90;99.90
5196;DHT22;2617;51.006;12.436;2023-04-24T05:30:22;11.00;99.90
5196;DHT22;2617;51.006;12.436;2023-04-24T05:35:24;11.10;99.90
5196;DHT22;2617;51.006;12.436;2023-04-24T05:40:27;11.20;99.90
5196;DHT22;2617;51.006;12.436;2023-04-24T05:45:29;11.40;99.90
5196;DHT22;2617;51.006;12.436;2023-04-24T05:50:32;11.50;99.90
5196;DHT22;2617;51.006;12.436;2023-04-24T05:55:35;11.70;99.90
5196;DHT22;2617;51.006;12.436;2023-04-24T06:00:37;11.90;99.90
5196;DHT22;2617;51.006;12.436;2023-04-24T06:05:40;12.00;99.90
5196;DHT22;2617;51.006;12.436;2023-04-24T06:10:42;12.10;99.90
5196;DHT22;2617;51.006;12.436;2023-04-24T06:15:45;12.10;99.90
5196;DHT22;2617;51.006;12.436;2023-04-24T06:20:47;11.90;99.90
5196;DHT22;2617;51.006;12.436;2023-04-24T06:25:49;11.90;99.90
5196;DHT22;2617;51.006;12.436;2023-04-24T06:30:53;11.80;99.90
5196;DHT22;2617;51.006;12.436;2023-04-24T06:35:55;11.70;99.90
5196;DHT22;2617;51.006;12.436;2023-04-24T06:40:57;11.80;99.90
5196;DHT22;2617;51.006;12.436;2023-04-24T06:46:00;11.80;99.90
5196;DHT22;2617;51.006;12.436;2023-04-24T06:51:02;11.90;99.90
5196;DHT22;2617;51.006;12.436;2023-04-24T06:56:05;12.10;99.90
5196;DHT22;2617;51.006;12.436;2023-04-24T07:01:08;12.30;99.90
5196;DHT22;2617;51.006;12.436;2023-04-24T07:06:11;12.70;99.90
5196;DHT22;2617;51.006;12.436;2023-04-24T07:11:14;12.80;99.90
5196;DHT22;2617;51.006;12.436;2023-04-24T07:16:17;12.80;99.90
5196;DHT22;2617;51.006;12.436;2023-04-24T07:21:19;12.80;99.90
5196;DHT22;2617;51.006;12.436;2023-04-24T07:26:22;12.90;99.90
5196;DHT22;2617;51.006;12.436;2023-04-24T07:31:24;13.10;99.90
5196;DHT22;2617;51.006;12.436;2023-04-24T07:36:26;13.30;99.90
5196;DHT22;2617;51.006;12.436;2023-04-24T07:41:29;13.40;99.90
5196;DHT22;2617;51.006;12.436;2023-04-24T07:46:31;13.50;99.90
5196;DHT22;2617;51.006;12.436;2023-04-24T07:51:34;13.70;99.90
5196;DHT22;2617;51.006;12.436;2023-04-24T07:56:37;14.10;99.90
5196;DHT22;2617;51.006;12.436;2023-04-24T08:01:40;14.10;99.90
5196;DHT22;2617;51.006;12.436;2023-04-24T08:06:42;14.30;99.90
5196;DHT22;2617;51.006;12.436;2023-04-24T08:11:44;14.30;99.90
5196;DHT22;2617;51.006;12.436;2023-04-24T08:16:48;14.20;99.90
5196;DHT22;2617;51.006;12.436;2023-04-24T08:21:50;14.20;99.90
5196;DHT22;2617;51.006;12.436;2023-04-24T08:26:52;14.50;99.90
5196;DHT22;2617;51.006;12.436;2023-04-24T08:31:55;14.90;99.90
5196;DHT22;2617;51.006;12.436;2023-04-24T08:36:58;15.10;99.90
5196;DHT22;2617;51.006;12.436;2023-04-24T08:42:00;15.10;99.90
5196;DHT22;2617;51.006;12.436;2023-04-24T08:47:03;15.00;99.90
5196;DHT22;2617;51.006;12.436;2023-04-24T08:52:06;15.00;99.90
5196;DHT22;2617;51.006;12.436;2023-04-24T08:57:08;15.30;99.90
5196;DHT22;2617;51.006;12.436;2023-04-24T09:02:11;15.30;99.90
5196;DHT22;2617;51.006;12.436;2023-04-24T09:07:14;15.40;99.90
5196;DHT22;2617;51.006;12.436;2023-04-24T09:12:16;15.30;99.90
5196;DHT22;2617;51.006;12.436;2023-04-24T09:17:18;15.20;99.90
5196;DHT22;2617;51.006;12.436;2023-04-24T09:22:21;15.30;99.90
5196;DHT22;2617;51.006;12.436;2023-04-24T09:27:24;15.20;99.90
5196;DHT22;2617;51.006;12.436;2023-04-24T09:32:27;15.00;99.90
5196;DHT22;2617;51.006;12.436;2023-04-24T09:37:30;15.00;99.90
5196;DHT22;2617;51.006;12.436;2023-04-24T09:42:33;15.20;99.90
5196;DHT22;2617;51.006;12.436;2023-04-24T09:47:36;15.10;99.90
5196;DHT22;2617;51.006;12.436;2023-04-24T09:52:40;15.60;99.40
5196;DHT22;2617;51.006;12.436;2023-04-24T09:57:51;15.90;97.00
5196;DHT22;2617;51.006;12.436;2023-04-24T10:02:59;16.10;96.80
5196;DHT22;2617;51.006;12.436;2023-04-24T10:08:03;16.00;95.50
5196;DHT22;2617;51.006;12.436;2023-04-24T10:13:07;16.10;95.30
5196;DHT22;2617;51.006;12.436;2023-04-24T10:18:09;16.60;93.90
5196;DHT22;2617;51.006;12.436;2023-04-24T10:23:12;17.40;82.50
5196;DHT22;2617;51.006;12.436;2023-04-24T10:28:14;17.40;82.50
5196;DHT22;2617;51.006;12.436;2023-04-24T10:33:17;17.20;84.00
5196;DHT22;2617;51.006;12.436;2023-04-24T10:38:22;17.50;85.00
5196;DHT22;2617;51.006;12.436;2023-04-24T10:43:25;17.10;79.30
5196;DHT22;2617;51.006;12.436;2023-04-24T10:48:27;17.10;79.30
5196;DHT22;2617;51.006;12.436;2023-04-24T10:53:30;16.80;78.50
5196;DHT22;2617;51.006;12.436;2023-04-24T10:58:37;16.90;79.80
5196;DHT22;2617;51.006;12.436;2023-04-24T11:03:50;16.90;80.00
5196;DHT22;2617;51.006;12.436;2023-04-24T11:08:45;17.00;82.90
5196;DHT22;2617;51.006;12.436;2023-04-24T11:14:02;17.70;78.70
5196;DHT22;2617;51.006;12.436;2023-04-24T11:19:05;17.70;77.80
5196;DHT22;2617;51.006;12.436;2023-04-24T11:24:22;17.70;75.90
5196;DHT22;2617;51.006;12.436;2023-04-24T11:29:48;17.70;76.80
5196;DHT22;2617;51.006;12.436;2023-04-24T11:34:53;17.30;74.70
5196;DHT22;2617;51.006;12.436;2023-04-24T11:39:54;17.20;73.50
5196;DHT22;2617;51.006;12.436;2023-04-24T11:44:57;16.90;71.80
5196;DHT22;2617;51.006;12.436;2023-04-24T11:49:59;16.80;75.20
5196;DHT22;2617;51.006;12.436;2023-04-24T11:55:02;17.10;76.10
5196;DHT22;2617;51.006;12.436;2023-04-24T12:00:05;17.40;74.30
5196;DHT22;2617;51.006;12.436;2023-04-24T12:05:08;17.20;74.20
5196;DHT22;2617;51.006;12.436;2023-04-24T12:10:10;16.90;72.90
5196;DHT22;2617;51.006;12.436;2023-04-24T12:15:13;16.80;71.10
5196;DHT22;2617;51.006;12.436;2023-04-24T12:20:15;16.90;72.90
5196;DHT22;2617;51.006;12.436;2023-04-24T12:25:18;16.90;73.70
5196;DHT22;2617;51.006;12.436;2023-04-24T12:30:25;17.00;73.70
5196;DHT22;2617;51.006;12.436;2023-04-24T12:35:24;16.90;72.80
5196;DHT22;2617;51.006;12.436;2023-04-24T12:40:27;16.90;73.30
5196;DHT22;2617;51.006;12.436;2023-04-24T12:45:29;16.90;73.30
5196;DHT22;2617;51.006;12.436;2023-04-24T12:50:32;17.20;71.70
5196;DHT22;2617;51.006;12.436;2023-04-24T12:55:34;17.50;70.50
5196;DHT22;2617;51.006;12.436;2023-04-24T13:00:38;16.90;70.40
5196;DHT22;2617;51.006;12.436;2023-04-24T13:05:41;16.80;70.20
5196;DHT22;2617;51.006;12.436;2023-04-24T13:10:43;16.40;70.90
5196;DHT22;2617;51.006;12.436;2023-04-24T13:15:45;16.50;73.50
5196;DHT22;2617;51.006;12.436;2023-04-24T13:20:47;16.60;71.60
5196;DHT22;2617;51.006;12.436;2023-04-24T13:25:50;16.50;72.40
5196;DHT22;2617;51.006;12.436;2023-04-24T13:30:52;16.40;73.60
5196;DHT22;2617;51.006;12.436;2023-04-24T13:35:55;16.40;74.10
5196;DHT22;2617;51.006;12.436;2023-04-24T13:40:57;16.90;72.00
5196;DHT22;2617;51.006;12.436;2023-04-24T13:46:00;17.70;68.00
5196;DHT22;2617;51.006;12.436;2023-04-24T13:51:03;17.70;67.90
5196;DHT22;2617;51.006;12.436;2023-04-24T13:56:05;17.30;68.30
5196;DHT22;2617;51.006;12.436;2023-04-24T14:01:08;17.00;72.20
5196;DHT22;2617;51.006;12.436;2023-04-24T14:06:11;17.00;73.70
5196;DHT22;2617;51.006;12.436;2023-04-24T14:11:13;17.20;72.00
5196;DHT22;2617;51.006;12.436;2023-04-24T14:16:16;17.10;73.90
5196;DHT22;2617;51.006;12.436;2023-04-24T14:21:18;17.20;74.20
5196;DHT22;2617;51.006;12.436;2023-04-24T14:26:20;17.20;71.40
5196;DHT22;2617;51.006;12.436;2023-04-24T14:31:23;17.10;68.60
5196;DHT22;2617;51.006;12.436;2023-04-24T14:36:25;17.00;68.90
5196;DHT22;2617;51.006;12.436;2023-04-24T14:41:28;16.70;69.50
5196;DHT22;2617;51.006;12.436;2023-04-24T14:46:30;16.60;71.30
5196;DHT22;2617;51.006;12.436;2023-04-24T14:51:33;16.30;72.70
5196;DHT22;2617;51.006;12.436;2023-04-24T14:56:35;15.90;75.60
5196;DHT22;2617;51.006;12.436;2023-04-24T15:01:37;15.40;77.60
5196;DHT22;2617;51.006;12.436;2023-04-24T15:06:41;15.20;82.00
5196;DHT22;2617;51.006;12.436;2023-04-24T15:11:43;15.20;82.00
5196;DHT22;2617;51.006;12.436;2023-04-24T15:16:46;15.30;79.60
5196;DHT22;2617;51.006;12.436;2023-04-24T15:21:48;15.90;79.30
5196;DHT22;2617;51.006;12.436;2023-04-24T15:26:51;15.50;79.80
5196;DHT22;2617;51.006;12.436;2023-04-24T15:31:54;15.40;79.70
5196;DHT22;2617;51.006;12.436;2023-04-24T15:36:56;15.40;79.60
5196;DHT22;2617;51.006;12.436;2023-04-24T15:41:59;15.50;81.40
5196;DHT22;2617;51.006;12.436;2023-04-24T15:47:02;14.60;83.60
5196;DHT22;2617;51.006;12.436;2023-04-24T15:52:04;14.60;83.60
5196;DHT22;2617;51.006;12.436;2023-04-24T15:57:07;14.20;84.60
5196;DHT22;2617;51.006;12.436;2023-04-24T16:02:09;13.90;85.60
5196;DHT22;2617;51.006;12.436;2023-04-24T16:07:13;13.70;88.10
5196;DHT22;2617;51.006;12.436;2023-04-24T16:12:15;13.60;90.70
5196;DHT22;2617;51.006;12.436;2023-04-24T16:17:17;13.40;91.70
5196;DHT22;2617;51.006;12.436;2023-04-24T16:22:20;13.40;91.10
5196;DHT22;2617;51.006;12.436;2023-04-24T16:27:22;13.20;92.20
5196;DHT22;2617;51.006;12.436;2023-04-24T16:32:25;13.20;91.60
5196;DHT22;2617;51.006;12.436;2023-04-24T16:37:27;13.10;90.80
5196;DHT22;2617;51.006;12.436;2023-04-24T16:42:29;13.00;91.10
5196;DHT22;2617;51.006;12.436;2023-04-24T16:47:32;12.80;90.80
5196;DHT22;2617;51.006;12.436;2023-04-24T16:52:35;12.50;90.80
5196;DHT22;2617;51.006;12.436;2023-04-24T16:57:38;12.50;90.80
5196;DHT22;2617;51.006;12.436;2023-04-24T17:02:41;12.10;91.90
5196;DHT22;2617;51.006;12.436;2023-04-24T17:07:44;11.90;93.00
5196;DHT22;2617;51.006;12.436;2023-04-24T17:12:47;11.70;93.40
5196;DHT22;2617;51.006;12.436;2023-04-24T17:17:50;11.70;93.40
5196;DHT22;2617;51.006;12.436;2023-04-24T17:22:52;11.60;94.30
5196;DHT22;2617;51.006;12.436;2023-04-24T17:27:54;11.70;95.10
5196;DHT22;2617;51.006;12.436;2023-04-24T17:32:58;12.00;95.20
5196;DHT22;2617;51.006;12.436;2023-04-24T17:38:00;12.00;95.10
5196;DHT22;2617;51.006;12.436;2023-04-24T17:43:02;12.10;94.90
5196;DHT22;2617;51.006;12.436;2023-04-24T17:48:06;11.70;96.20
5196;DHT22;2617;51.006;12.436;2023-04-24T17:53:08;11.70;96.20
5196;DHT22;2617;51.006;12.436;2023-04-24T17:58:11;11.30;97.40
5196;DHT22;2617;51.006;12.436;2023-04-24T18:03:14;11.30;97.40
5196;DHT22;2617;51.006;12.436;2023-04-24T18:08:16;11.10;98.10
5196;DHT22;2617;51.006;12.436;2023-04-24T18:13:19;11.00;98.90
5196;DHT22;2617;51.006;12.436;2023-04-24T18:18:21;10.90;99.60
5196;DHT22;2617;51.006;12.436;2023-04-24T18:23:23;10.90;99.90
5196;DHT22;2617;51.006;12.436;2023-04-24T18:28:26;10.90;99.80
5196;DHT22;2617;51.006;12.436;2023-04-24T18:33:28;10.80;99.90
5196;DHT22;2617;51.006;12.436;2023-04-24T18:38:31;10.70;99.90
5196;DHT22;2617;51.006;12.436;2023-04-24T18:43:33;10.60;99.90
5196;DHT22;2617;51.006;12.436;2023-04-24T18:48:36;10.40;99.90
5196;DHT22;2617;51.006;12.436;2023-04-24T18:53:38;10.40;99.90
5196;DHT22;2617;51.006;12.436;2023-04-24T18:58:40;10.30;99.90
5196;DHT22;2617;51.006;12.436;2023-04-24T19:03:44;10.20;99.90
5196;DHT22;2617;51.006;12.436;2023-04-24T19:08:46;10.20;99.90
5196;DHT22;2617;51.006;12.436;2023-04-24T19:13:49;10.10;99.90
5196;DHT22;2617;51.006;12.436;2023-04-24T19:18:51;9.90;99.90
5196;DHT22;2617;51.006;12.436;2023-04-24T19:23:54;9.80;99.90
5196;DHT22;2617;51.006;12.436;2023-04-24T19:28:57;9.60;99.90
5196;DHT22;2617;51.006;12.436;2023-04-24T19:33:59;9.60;99.90
5196;DHT22;2617;51.006;12.436;2023-04-24T19:39:02;9.50;99.90
5196;DHT22;2617;51.006;12.436;2023-04-24T19:44:05;9.30;99.90
5196;DHT22;2617;51.006;12.436;2023-04-24T19:49:07;9.20;99.90
5196;DHT22;2617;51.006;12.436;2023-04-24T19:54:10;9.20;99.90
5196;DHT22;2617;51.006;12.436;2023-04-24T19:59:12;9.20;99.90
5196;DHT22;2617;51.006;12.436;2023-04-24T20:04:15;9.10;99.90
5196;DHT22;2617;51.006;12.436;2023-04-24T20:09:18;9.00;99.90
5196;DHT22;2617;51.006;12.436;2023-04-24T20:14:21;9.00;99.90
5196;DHT22;2617;51.006;12.436;2023-04-24T20:19:23;8.90;99.90
5196;DHT22;2617;51.006;12.436;2023-04-24T20:24:26;8.90;99.90
5196;DHT22;2617;51.006;12.436;2023-04-24T20:29:28;8.80;99.90
5196;DHT22;2617;51.006;12.436;2023-04-24T20:34:31;8.90;99.90
5196;DHT22;2617;51.006;12.436;2023-04-24T20:39:33;8.90;99.90
5196;DHT22;2617;51.006;12.436;2023-04-24T20:44:37;8.90;99.90
5196;DHT22;2617;51.006;12.436;2023-04-24T20:49:39;9.00;99.90
5196;DHT22;2617;51.006;12.436;2023-04-24T20:54:42;8.90;99.90
5196;DHT22;2617;51.006;12.436;2023-04-24T20:59:45;9.00;99.90
5196;DHT22;2617;51.006;12.436;2023-04-24T21:04:47;9.00;99.90
5196;DHT22;2617;51.006;12.436;2023-04-24T21:09:49;8.90;99.90
5196;DHT22;2617;51.006;12.436;2023-04-24T21:14:52;8.90;99.90
5196;DHT22;2617;51.006;12.436;2023-04-24T21:19:54;8.90;99.90
5196;DHT22;2617;51.006;12.436;2023-04-24T21:24:57;8.80;99.90
5196;DHT22;2617;51.006;12.436;2023-04-24T21:29:59;8.80;99.90
5196;DHT22;2617;51.006;12.436;2023-04-24T21:35:02;8.70;99.90
5196;DHT22;2617;51.006;12.436;2023-04-24T21:40:05;8.60;99.90
5196;DHT22;2617;51.006;12.436;2023-04-24T21:45:09;8.40;99.90
5196;DHT22;2617;51.006;12.436;2023-04-24T21:50:12;8.40;99.90
5196;DHT22;2617;51.006;12.436;2023-04-24T21:55:14;8.30;99.90
5196;DHT22;2617;51.006;12.436;2023-04-24T22:00:18;8.20;99.90
5196;DHT22;2617;51.006;12.436;2023-04-24T22:05:21;8.30;99.90
5196;DHT22;2617;51.006;12.436;2023-04-24T22:10:23;8.30;99.90
5196;DHT22;2617;51.006;12.436;2023-04-24T22:15:26;8.30;99.90
5196;DHT22;2617;51.006;12.436;2023-04-24T22:20:30;8.30;99.90
5196;DHT22;2617;51.006;12.436;2023-04-24T22:25:31;8.20;99.90
5196;DHT22;2617;51.006;12.436;2023-04-24T22:30:35;8.20;99.90
5196;DHT22;2617;51.006;12.436;2023-04-24T22:35:37;8.10;99.90
5196;DHT22;2617;51.006;12.436;2023-04-24T22:40:39;8.10;99.90
5196;DHT22;2617;51.006;12.436;2023-04-24T22:45:42;8.00;99.90
5196;DHT22;2617;51.006;12.436;2023-04-24T22:50:45;7.60;99.90
5196;DHT22;2617;51.006;12.436;2023-04-24T22:55:47;7.60;99.90
5196;DHT22;2617;51.006;12.436;2023-04-24T23:00:50;7.40;99.90
5196;DHT22;2617;51.006;12.436;2023-04-24T23:05:53;7.00;99.90
5196;DHT22;2617;51.006;12.436;2023-04-24T23:10:55;7.00;99.90
5196;DHT22;2617;51.006;12.436;2023-04-24T23:15:58;6.90;99.90
5196;DHT22;2617;51.006;12.436;2023-04-24T23:21:00;6.80;99.90
5196;DHT22;2617;51.006;12.436;2023-04-24T23:26:04;6.50;99.90
5196;DHT22;2617;51.006;12.436;2023-04-24T23:31:06;6.50;99.90
5196;DHT22;2617;51.006;12.436;2023-04-24T23:36:08;6.50;99.90
5196;DHT22;2617;51.006;12.436;2023-04-24T23:41:11;6.40;99.90
5196;DHT22;2617;51.006;12.436;2023-04-24T23:46:13;6.30;99.90
5196;DHT22;2617;51.006;12.436;2023-04-24T23:51:16;6.20;99.90
5196;DHT22;2617;51.006;12.436;2023-04-24T23:56:18;6.10;99.90
